sensor_id;sensor_type;location;lat;lon;timestamp;temperature;humidity
4757;DHT22;2392;52.578;13.426;2023-03-04T00:02:23;2.80;99.90
4757;DHT22;2392;52.578;13.426;2023-03-04T00:04:50;2.80;99.90
4757;DHT22;2392;52.578;13.426;2023-03-04T00:07:17;2.70;99.90
4757;DHT22;2392;52.578;13.426;2023-03-04T00:09:45;2.70;99.90
4757;DHT22;2392;52.578;13.426;2023-03-04T00:12:12;2.70;99.90
4757;DHT22;2392;52.578;13.426;2023-03-04T00:14:39;2.70;99.90
4757;DHT22;2392;52.578;13.426;2023-03-04T00:17:06;2.60;99.90
4757;DHT22;2392;52.578;13.426;2023-03-04T00:19:35;2.70;99.90
4757;DHT22;2392;52.578;13.426;2023-03-04T00:22:02;2.70;99.90
4757;DHT22;2392;52.578;13.426;2023-03-04T00:24:30;2.80;99.90
4757;DHT22;2392;52.578;13.426;2023-03-04T00:26:57;2.80;99.90
4757;DHT22;2392;52.578;13.426;2023-03-04T00:29:24;2.80;99.90
4757;DHT22;2392;52.578;13.426;2023-03-04T00:31:51;2.90;99.90
4757;DHT22;2392;52.578;13.426;2023-03-04T00:34:18;2.90;99.90
4757;DHT22;2392;52.578;13.426;2023-03-04T00:36:46;3.00;99.90
4757;DHT22;2392;52.578;13.426;2023-03-04T00:39:14;3.00;99.90
4757;DHT22;2392;52.578;13.426;2023-03-04T00:41:41;3.00;99.90
4757;DHT22;2392;52.578;13.426;2023-03-04T00:44:08;3.00;99.90
4757;DHT22;2392;52.578;13.426;2023-03-04T00:46:35;3.00;99.90
4757;DHT22;2392;52.578;13.426;2023-03-04T00:49:02;3.10;99.90
4757;DHT22;2392;52.578;13.426;2023-03-04T00:51:29;3.10;99.90
4757;DHT22;2392;52.578;13.426;2023-03-04T00:53:57;3.10;99.90
4757;DHT22;2392;52.578;13.426;2023-03-04T00:56:25;3.20;99.90
4757;DHT22;2392;52.578;13.426;2023-03-04T00:58:52;3.20;99.90
4757;DHT22;2392;52.578;13.426;2023-03-04T01:01:19;3.20;99.90
4757;DHT22;2392;52.578;13.426;2023-03-04T01:03:46;3.20;99.90
4757;DHT22;2392;52.578;13.426;2023-03-04T01:06:13;3.20;99.90
4757;DHT22;2392;52.578;13.426;2023-03-04T01:08:40;3.20;99.90
4757;DHT22;2392;52.578;13.426;2023-03-04T01:11:08;3.20;99.90
4757;DHT22;2392;52.578;13.426;2023-03-04T01:13:36;3.20;99.90
4757;DHT22;2392;52.578;13.426;2023-03-04T01:16:03;3.30;99.90
4757;DHT22;2392;52.578;13.426;2023-03-04T01:18:31;3.20;99.90
4757;DHT22;2392;52.578;13.426;2023-03-04T01:20:58;3.30;99.90
4757;DHT22;2392;52.578;13.426;2023-03-04T01:23:28;3.30;99.90
4757;DHT22;2392;52.578;13.426;2023-03-04T01:25:55;3.30;99.90
4757;DHT22;2392;52.578;13.426;2023-03-04T01:28:25;3.30;99.90
4757;DHT22;2392;52.578;13.426;2023-03-04T01:30:52;3.30;99.90
4757;DHT22;2392;52.578;13.426;2023-03-04T01:33:19;3.30;99.90
4757;DHT22;2392;52.578;13.426;2023-03-04T01:35:46;3.30;99.90
4757;DHT22;2392;52.578;13.426;2023-03-04T01:38:13;3.30;99.90
4757;DHT22;2392;52.578;13.426;2023-03-04T01:40:40;3.40;99.90
4757;DHT22;2392;52.578;13.426;2023-03-04T01:43:10;3.40;99.90
4757;DHT22;2392;52.578;13.426;2023-03-04T01:45:42;3.40;99.90
4757;DHT22;2392;52.578;13.426;2023-03-04T01:48:11;3.40;99.90
4757;DHT22;2392;52.578;13.426;2023-03-04T01:50:39;3.40;99.90
4757;DHT22;2392;52.578;13.426;2023-03-04T01:53:06;3.50;99.90
4757;DHT22;2392;52.578;13.426;2023-03-04T01:55:33;3.50;99.90
4757;DHT22;2392;52.578;13.426;2023-03-04T01:58:00;3.40;99.90
4757;DHT22;2392;52.578;13.426;2023-03-04T02:00:29;3.50;99.90
4757;DHT22;2392;52.578;13.426;2023-03-04T02:02:59;3.50;99.90
4757;DHT22;2392;52.578;13.426;2023-03-04T02:05:27;3.50;99.90
4757;DHT22;2392;52.578;13.426;2023-03-04T02:07:56;3.60;99.90
4757;DHT22;2392;52.578;13.426;2023-03-04T02:10:24;3.60;99.90
4757;DHT22;2392;52.578;13.426;2023-03-04T02:12:52;3.60;99.90
4757;DHT22;2392;52.578;13.426;2023-03-04T02:15:19;3.60;99.90
4757;DHT22;2392;52.578;13.426;2023-03-04T02:17:47;3.70;99.90
4757;DHT22;2392;52.578;13.426;2023-03-04T02:20:22;3.70;99.90
4757;DHT22;2392;52.578;13.426;2023-03-04T02:23:00;3.70;99.90
4757;DHT22;2392;52.578;13.426;2023-03-04T02:25:34;3.80;99.90
4757;DHT22;2392;52.578;13.426;2023-03-04T02:28:03;3.80;99.90
4757;DHT22;2392;52.578;13.426;2023-03-04T02:30:30;3.70;99.90
4757;DHT22;2392;52.578;13.426;2023-03-04T02:32:58;3.80;99.90
4757;DHT22;2392;52.578;13.426;2023-03-04T02:35:25;3.80;99.90
4757;DHT22;2392;52.578;13.426;2023-03-04T02:37:52;3.80;99.90
4757;DHT22;2392;52.578;13.426;2023-03-04T02:40:23;3.90;99.90
4757;DHT22;2392;52.578;13.426;2023-03-04T02:42:51;3.90;99.90
4757;DHT22;2392;52.578;13.426;2023-03-04T02:45:39;3.90;99.90
4757;DHT22;2392;52.578;13.426;2023-03-04T02:48:07;3.90;99.90
4757;DHT22;2392;52.578;13.426;2023-03-04T02:50:38;3.90;99.90
4757;DHT22;2392;52.578;13.426;2023-03-04T02:53:06;4.00;99.90
4757;DHT22;2392;52.578;13.426;2023-03-04T02:55:33;4.00;99.90
4757;DHT22;2392;52.578;13.426;2023-03-04T02:58:00;4.00;99.90
4757;DHT22;2392;52.578;13.426;2023-03-04T03:00:28;4.00;99.90
4757;DHT22;2392;52.578;13.426;2023-03-04T03:02:57;4.00;99.90
4757;DHT22;2392;52.578;13.426;2023-03-04T03:05:25;4.00;99.90
4757;DHT22;2392;52.578;13.426;2023-03-04T03:07:54;4.10;99.90
4757;DHT22;2392;52.578;13.426;2023-03-04T03:10:22;4.10;99.90
4757;DHT22;2392;52.578;13.426;2023-03-04T03:12:50;4.10;99.90
4757;DHT22;2392;52.578;13.426;2023-03-04T03:15:19;4.10;99.90
4757;DHT22;2392;52.578;13.426;2023-03-04T03:17:46;4.10;99.90
4757;DHT22;2392;52.578;13.426;2023-03-04T03:20:16;4.10;99.90
4757;DHT22;2392;52.578;13.426;2023-03-04T03:22:43;4.10;99.90
4757;DHT22;2392;52.578;13.426;2023-03-04T03:25:12;4.10;99.90
4757;DHT22;2392;52.578;13.426;2023-03-04T03:27:39;4.10;99.90
4757;DHT22;2392;52.578;13.426;2023-03-04T03:30:08;4.10;99.90
4757;DHT22;2392;52.578;13.426;2023-03-04T03:32:35;4.10;99.90
4757;DHT22;2392;52.578;13.426;2023-03-04T03:35:03;4.10;99.90
4757;DHT22;2392;52.578;13.426;2023-03-04T03:37:32;4.10;99.90
4757;DHT22;2392;52.578;13.426;2023-03-04T03:39:59;4.20;99.90
4757;DHT22;2392;52.578;13.426;2023-03-04T03:42:26;4.20;99.90
4757;DHT22;2392;52.578;13.426;2023-03-04T03:44:53;4.30;99.90
4757;DHT22;2392;52.578;13.426;2023-03-04T03:47:20;4.30;99.90
4757;DHT22;2392;52.578;13.426;2023-03-04T03:49:47;4.30;99.90
4757;DHT22;2392;52.578;13.426;2023-03-04T03:52:14;4.30;99.90
4757;DHT22;2392;52.578;13.426;2023-03-04T03:54:43;4.20;99.90
4757;DHT22;2392;52.578;13.426;2023-03-04T03:57:10;4.30;99.90
4757;DHT22;2392;52.578;13.426;2023-03-04T03:59:37;4.30;99.90
4757;DHT22;2392;52.578;13.426;2023-03-04T04:02:04;4.30;99.90
4757;DHT22;2392;52.578;13.426;2023-03-04T04:04:31;4.30;99.90
4757;DHT22;2392;52.578;13.426;2023-03-04T04:06:58;4.40;99.90
4757;DHT22;2392;52.578;13.426;2023-03-04T04:09:25;4.40;99.90
4757;DHT22;2392;52.578;13.426;2023-03-04T04:11:53;4.40;99.90
4757;DHT22;2392;52.578;13.426;2023-03-04T04:14:20;4.40;99.90
4757;DHT22;2392;52.578;13.426;2023-03-04T04:16:47;4.40;99.90
4757;DHT22;2392;52.578;13.426;2023-03-04T04:19:18;4.40;99.90
4757;DHT22;2392;52.578;13.426;2023-03-04T04:21:45;4.40;99.90
4757;DHT22;2392;52.578;13.426;2023-03-04T04:24:12;4.40;99.90
4757;DHT22;2392;52.578;13.426;2023-03-04T04:26:39;4.50;99.90
4757;DHT22;2392;52.578;13.426;2023-03-04T04:29:08;4.50;99.90
4757;DHT22;2392;52.578;13.426;2023-03-04T04:31:38;4.50;99.90
4757;DHT22;2392;52.578;13.426;2023-03-04T04:34:05;4.50;99.90
4757;DHT22;2392;52.578;13.426;2023-03-04T04:36:32;4.60;99.90
4757;DHT22;2392;52.578;13.426;2023-03-04T04:38:59;4.50;99.90
4757;DHT22;2392;52.578;13.426;2023-03-04T04:41:28;4.60;99.90
4757;DHT22;2392;52.578;13.426;2023-03-04T04:43:56;4.60;99.90
4757;DHT22;2392;52.578;13.426;2023-03-04T04:46:25;4.60;99.90
4757;DHT22;2392;52.578;13.426;2023-03-04T04:48:52;4.60;99.90
4757;DHT22;2392;52.578;13.426;2023-03-04T04:51:19;4.60;99.90
4757;DHT22;2392;52.578;13.426;2023-03-04T04:53:46;4.60;99.90
4757;DHT22;2392;52.578;13.426;2023-03-04T04:56:16;4.60;99.90
4757;DHT22;2392;52.578;13.426;2023-03-04T04:58:44;4.70;99.90
4757;DHT22;2392;52.578;13.426;2023-03-04T05:01:11;4.70;99.90
4757;DHT22;2392;52.578;13.426;2023-03-04T05:03:40;4.70;99.90
4757;DHT22;2392;52.578;13.426;2023-03-04T05:06:09;4.70;99.90
4757;DHT22;2392;52.578;13.426;2023-03-04T05:08:37;4.70;99.90
4757;DHT22;2392;52.578;13.426;2023-03-04T05:11:05;4.70;99.90
4757;DHT22;2392;52.578;13.426;2023-03-04T05:13:32;4.80;99.90
4757;DHT22;2392;52.578;13.426;2023-03-04T05:15:59;4.80;99.90
4757;DHT22;2392;52.578;13.426;2023-03-04T05:18:26;4.70;99.90
4757;DHT22;2392;52.578;13.426;2023-03-04T05:20:56;4.70;99.90
4757;DHT22;2392;52.578;13.426;2023-03-04T05:23:25;4.80;99.90
4757;DHT22;2392;52.578;13.426;2023-03-04T05:25:52;4.70;99.90
4757;DHT22;2392;52.578;13.426;2023-03-04T05:28:19;4.80;99.90
4757;DHT22;2392;52.578;13.426;2023-03-04T05:30:47;4.80;99.90
4757;DHT22;2392;52.578;13.426;2023-03-04T05:33:16;4.80;99.90
4757;DHT22;2392;52.578;13.426;2023-03-04T05:35:44;4.80;99.90
4757;DHT22;2392;52.578;13.426;2023-03-04T05:38:15;4.80;99.90
4757;DHT22;2392;52.578;13.426;2023-03-04T05:40:43;4.80;99.90
4757;DHT22;2392;52.578;13.426;2023-03-04T05:43:10;4.80;99.90
4757;DHT22;2392;52.578;13.426;2023-03-04T05:45:38;4.80;99.90
4757;DHT22;2392;52.578;13.426;2023-03-04T05:48:05;4.90;99.90
4757;DHT22;2392;52.578;13.426;2023-03-04T05:50:33;4.90;99.90
4757;DHT22;2392;52.578;13.426;2023-03-04T05:53:00;4.90;99.90
4757;DHT22;2392;52.578;13.426;2023-03-04T05:55:28;4.90;99.90
4757;DHT22;2392;52.578;13.426;2023-03-04T05:57:56;4.90;99.90
4757;DHT22;2392;52.578;13.426;2023-03-04T06:00:23;4.90;99.90
4757;DHT22;2392;52.578;13.426;2023-03-04T06:02:50;4.90;99.90
4757;DHT22;2392;52.578;13.426;2023-03-04T06:05:18;4.90;99.90
4757;DHT22;2392;52.578;13.426;2023-03-04T06:07:45;4.90;99.90
4757;DHT22;2392;52.578;13.426;2023-03-04T06:10:13;5.00;99.90
4757;DHT22;2392;52.578;13.426;2023-03-04T06:12:42;4.90;99.90
4757;DHT22;2392;52.578;13.426;2023-03-04T06:15:09;4.90;99.90
4757;DHT22;2392;52.578;13.426;2023-03-04T06:17:38;5.00;99.90
4757;DHT22;2392;52.578;13.426;2023-03-04T06:20:06;4.90;99.90
4757;DHT22;2392;52.578;13.426;2023-03-04T06:22:33;4.90;99.90
4757;DHT22;2392;52.578;13.426;2023-03-04T06:25:00;4.90;99.90
4757;DHT22;2392;52.578;13.426;2023-03-04T06:27:27;4.90;99.90
4757;DHT22;2392;52.578;13.426;2023-03-04T06:29:56;5.00;99.90
4757;DHT22;2392;52.578;13.426;2023-03-04T06:32:23;5.00;99.90
4757;DHT22;2392;52.578;13.426;2023-03-04T06:34:50;4.90;99.90
4757;DHT22;2392;52.578;13.426;2023-03-04T06:37:17;4.90;99.90
4757;DHT22;2392;52.578;13.426;2023-03-04T06:39:44;4.90;99.90
4757;DHT22;2392;52.578;13.426;2023-03-04T06:42:12;4.90;99.90
4757;DHT22;2392;52.578;13.426;2023-03-04T06:44:39;4.90;99.90
4757;DHT22;2392;52.578;13.426;2023-03-04T06:47:08;4.90;99.90
4757;DHT22;2392;52.578;13.426;2023-03-04T06:49:35;4.90;99.90
4757;DHT22;2392;52.578;13.426;2023-03-04T06:52:02;5.00;99.90
4757;DHT22;2392;52.578;13.426;2023-03-04T06:54:29;5.00;99.90
4757;DHT22;2392;52.578;13.426;2023-03-04T06:56:56;5.00;99.90
4757;DHT22;2392;52.578;13.426;2023-03-04T06:59:23;5.00;99.90
4757;DHT22;2392;52.578;13.426;2023-03-04T07:01:50;5.10;99.90
4757;DHT22;2392;52.578;13.426;2023-03-04T07:04:18;5.10;99.90
4757;DHT22;2392;52.578;13.426;2023-03-04T07:06:47;5.10;99.90
4757;DHT22;2392;52.578;13.426;2023-03-04T07:09:14;5.10;99.90
4757;DHT22;2392;52.578;13.426;2023-03-04T07:11:41;5.10;99.90
4757;DHT22;2392;52.578;13.426;2023-03-04T07:14:08;5.10;99.90
4757;DHT22;2392;52.578;13.426;2023-03-04T07:16:36;5.10;99.90
4757;DHT22;2392;52.578;13.426;2023-03-04T07:19:03;5.10;99.90
4757;DHT22;2392;52.578;13.426;2023-03-04T07:21:31;5.10;99.90
4757;DHT22;2392;52.578;13.426;2023-03-04T07:23:58;5.10;99.90
4757;DHT22;2392;52.578;13.426;2023-03-04T07:26:25;5.20;99.90
4757;DHT22;2392;52.578;13.426;2023-03-04T07:28:52;5.10;99.90
4757;DHT22;2392;52.578;13.426;2023-03-04T07:31:23;5.10;99.90
4757;DHT22;2392;52.578;13.426;2023-03-04T07:33:54;5.10;99.90
4757;DHT22;2392;52.578;13.426;2023-03-04T07:36:21;5.10;99.90
4757;DHT22;2392;52.578;13.426;2023-03-04T07:38:50;5.10;99.90
4757;DHT22;2392;52.578;13.426;2023-03-04T07:41:20;5.10;99.90
4757;DHT22;2392;52.578;13.426;2023-03-04T07:43:47;5.20;99.90
4757;DHT22;2392;52.578;13.426;2023-03-04T07:46:14;5.20;99.90
4757;DHT22;2392;52.578;13.426;2023-03-04T07:48:42;5.20;99.90
4757;DHT22;2392;52.578;13.426;2023-03-04T07:51:10;5.20;99.90
4757;DHT22;2392;52.578;13.426;2023-03-04T07:53:39;5.30;99.90
4757;DHT22;2392;52.578;13.426;2023-03-04T07:56:11;5.30;99.90
4757;DHT22;2392;52.578;13.426;2023-03-04T07:58:39;5.30;99.90
4757;DHT22;2392;52.578;13.426;2023-03-04T08:01:10;5.30;99.90
4757;DHT22;2392;52.578;13.426;2023-03-04T08:03:37;5.40;99.90
4757;DHT22;2392;52.578;13.426;2023-03-04T08:06:06;5.40;99.90
4757;DHT22;2392;52.578;13.426;2023-03-04T08:08:33;5.40;99.90
4757;DHT22;2392;52.578;13.426;2023-03-04T08:11:03;5.50;99.90
4757;DHT22;2392;52.578;13.426;2023-03-04T08:13:31;5.60;99.90
4757;DHT22;2392;52.578;13.426;2023-03-04T08:15:59;5.60;99.90
4757;DHT22;2392;52.578;13.426;2023-03-04T08:18:26;5.60;99.90
4757;DHT22;2392;52.578;13.426;2023-03-04T08:20:53;5.60;99.90
4757;DHT22;2392;52.578;13.426;2023-03-04T08:23:20;5.50;99.90
4757;DHT22;2392;52.578;13.426;2023-03-04T08:25:47;5.50;99.90
4757;DHT22;2392;52.578;13.426;2023-03-04T08:28:15;5.60;99.90
4757;DHT22;2392;52.578;13.426;2023-03-04T08:30:44;5.60;99.90
4757;DHT22;2392;52.578;13.426;2023-03-04T08:33:11;5.60;99.90
4757;DHT22;2392;52.578;13.426;2023-03-04T08:35:39;5.60;99.90
4757;DHT22;2392;52.578;13.426;2023-03-04T08:38:06;5.60;99.90
4757;DHT22;2392;52.578;13.426;2023-03-04T08:40:33;5.60;99.90
4757;DHT22;2392;52.578;13.426;2023-03-04T08:43:00;5.60;99.90
4757;DHT22;2392;52.578;13.426;2023-03-04T08:45:27;5.60;99.90
4757;DHT22;2392;52.578;13.426;2023-03-04T08:47:55;5.60;99.90
4757;DHT22;2392;52.578;13.426;2023-03-04T08:50:22;5.70;99.90
4757;DHT22;2392;52.578;13.426;2023-03-04T08:52:49;5.70;99.90
4757;DHT22;2392;52.578;13.426;2023-03-04T08:55:16;5.80;99.90
4757;DHT22;2392;52.578;13.426;2023-03-04T08:57:43;5.80;99.90
4757;DHT22;2392;52.578;13.426;2023-03-04T09:00:11;5.90;99.90
4757;DHT22;2392;52.578;13.426;2023-03-04T09:02:38;5.90;99.90
4757;DHT22;2392;52.578;13.426;2023-03-04T09:05:08;6.00;99.90
4757;DHT22;2392;52.578;13.426;2023-03-04T09:07:35;6.00;99.90
4757;DHT22;2392;52.578;13.426;2023-03-04T09:10:02;6.10;99.90
4757;DHT22;2392;52.578;13.426;2023-03-04T09:12:30;6.20;99.90
4757;DHT22;2392;52.578;13.426;2023-03-04T09:14:57;6.20;99.90
4757;DHT22;2392;52.578;13.426;2023-03-04T09:17:24;6.30;99.90
4757;DHT22;2392;52.578;13.426;2023-03-04T09:19:51;6.40;99.90
4757;DHT22;2392;52.578;13.426;2023-03-04T09:22:19;6.40;99.90
4757;DHT22;2392;52.578;13.426;2023-03-04T09:24:46;6.50;99.90
4757;DHT22;2392;52.578;13.426;2023-03-04T09:27:13;6.40;99.90
4757;DHT22;2392;52.578;13.426;2023-03-04T09:29:40;6.50;99.90
4757;DHT22;2392;52.578;13.426;2023-03-04T09:32:09;6.50;99.90
4757;DHT22;2392;52.578;13.426;2023-03-04T09:34:36;6.60;99.90
4757;DHT22;2392;52.578;13.426;2023-03-04T09:37:03;6.60;99.90
4757;DHT22;2392;52.578;13.426;2023-03-04T09:39:31;6.60;99.90
4757;DHT22;2392;52.578;13.426;2023-03-04T09:41:59;6.70;99.90
4757;DHT22;2392;52.578;13.426;2023-03-04T09:44:30;6.70;99.90
4757;DHT22;2392;52.578;13.426;2023-03-04T09:47:02;6.80;99.90
4757;DHT22;2392;52.578;13.426;2023-03-04T09:49:30;6.80;99.90
4757;DHT22;2392;52.578;13.426;2023-03-04T09:52:02;6.80;99.90
4757;DHT22;2392;52.578;13.426;2023-03-04T09:54:55;6.90;99.90
4757;DHT22;2392;52.578;13.426;2023-03-04T09:57:29;6.90;99.90
4757;DHT22;2392;52.578;13.426;2023-03-04T10:00:04;6.90;99.90
4757;DHT22;2392;52.578;13.426;2023-03-04T10:02:44;6.90;99.90
4757;DHT22;2392;52.578;13.426;2023-03-04T10:05:15;7.00;99.90
4757;DHT22;2392;52.578;13.426;2023-03-04T10:07:47;7.00;99.90
4757;DHT22;2392;52.578;13.426;2023-03-04T10:10:23;7.10;99.90
4757;DHT22;2392;52.578;13.426;2023-03-04T10:12:52;7.00;99.90
4757;DHT22;2392;52.578;13.426;2023-03-04T10:15:24;7.10;99.90
4757;DHT22;2392;52.578;13.426;2023-03-04T10:17:55;7.20;99.90
4757;DHT22;2392;52.578;13.426;2023-03-04T10:20:26;7.20;99.90
4757;DHT22;2392;52.578;13.426;2023-03-04T10:22:58;7.30;99.90
4757;DHT22;2392;52.578;13.426;2023-03-04T10:25:31;7.50;99.90
4757;DHT22;2392;52.578;13.426;2023-03-04T10:27:59;7.60;99.90
4757;DHT22;2392;52.578;13.426;2023-03-04T10:30:35;7.60;99.90
4757;DHT22;2392;52.578;13.426;2023-03-04T10:33:11;7.60;99.90
4757;DHT22;2392;52.578;13.426;2023-03-04T10:35:39;7.60;99.90
4757;DHT22;2392;52.578;13.426;2023-03-04T10:38:09;7.60;99.90
4757;DHT22;2392;52.578;13.426;2023-03-04T10:40:40;7.70;99.90
4757;DHT22;2392;52.578;13.426;2023-03-04T10:43:14;7.80;99.90
4757;DHT22;2392;52.578;13.426;2023-03-04T10:45:41;7.80;99.90
4757;DHT22;2392;52.578;13.426;2023-03-04T10:48:18;7.80;99.90
4757;DHT22;2392;52.578;13.426;2023-03-04T10:50:45;7.80;99.90
4757;DHT22;2392;52.578;13.426;2023-03-04T10:53:32;7.80;99.90
4757;DHT22;2392;52.578;13.426;2023-03-04T10:56:31;7.90;99.90
4757;DHT22;2392;52.578;13.426;2023-03-04T10:59:31;7.90;99.90
4757;DHT22;2392;52.578;13.426;2023-03-04T11:02:00;7.90;99.90
4757;DHT22;2392;52.578;13.426;2023-03-04T11:04:32;7.80;99.90
4757;DHT22;2392;52.578;13.426;2023-03-04T11:06:59;7.80;99.90
4757;DHT22;2392;52.578;13.426;2023-03-04T11:09:28;7.80;99.90
4757;DHT22;2392;52.578;13.426;2023-03-04T11:11:58;7.80;99.90
4757;DHT22;2392;52.578;13.426;2023-03-04T11:14:27;7.80;99.90
4757;DHT22;2392;52.578;13.426;2023-03-04T11:16:58;7.90;99.90
4757;DHT22;2392;52.578;13.426;2023-03-04T11:19:30;7.90;99.90
4757;DHT22;2392;52.578;13.426;2023-03-04T11:21:59;7.90;99.90
4757;DHT22;2392;52.578;13.426;2023-03-04T11:24:27;8.00;99.90
4757;DHT22;2392;52.578;13.426;2023-03-04T11:27:01;7.90;99.90
4757;DHT22;2392;52.578;13.426;2023-03-04T11:29:33;7.90;99.90
4757;DHT22;2392;52.578;13.426;2023-03-04T11:32:06;7.80;99.90
4757;DHT22;2392;52.578;13.426;2023-03-04T11:34:39;7.80;99.90
4757;DHT22;2392;52.578;13.426;2023-03-04T11:37:13;7.80;99.90
4757;DHT22;2392;52.578;13.426;2023-03-04T11:39:45;7.70;99.90
4757;DHT22;2392;52.578;13.426;2023-03-04T11:42:22;7.70;99.90
4757;DHT22;2392;52.578;13.426;2023-03-04T11:44:50;7.70;99.90
4757;DHT22;2392;52.578;13.426;2023-03-04T11:47:28;7.70;99.90
4757;DHT22;2392;52.578;13.426;2023-03-04T11:50:13;7.90;99.90
4757;DHT22;2392;52.578;13.426;2023-03-04T11:55:40;8.00;99.90
4757;DHT22;2392;52.578;13.426;2023-03-04T11:58:44;8.20;99.90
4757;DHT22;2392;52.578;13.426;2023-03-04T12:01:15;8.20;99.90
4757;DHT22;2392;52.578;13.426;2023-03-04T12:03:59;8.20;99.90
4757;DHT22;2392;52.578;13.426;2023-03-04T12:06:37;8.20;99.90
4757;DHT22;2392;52.578;13.426;2023-03-04T12:09:23;8.10;99.90
4757;DHT22;2392;52.578;13.426;2023-03-04T12:12:04;8.10;99.90
4757;DHT22;2392;52.578;13.426;2023-03-04T12:14:42;8.00;99.90
4757;DHT22;2392;52.578;13.426;2023-03-04T12:17:42;8.10;99.90
4757;DHT22;2392;52.578;13.426;2023-03-04T12:20:32;8.20;99.90
4757;DHT22;2392;52.578;13.426;2023-03-04T12:23:14;8.20;99.90
4757;DHT22;2392;52.578;13.426;2023-03-04T12:25:50;8.20;99.90
4757;DHT22;2392;52.578;13.426;2023-03-04T12:28:29;8.10;99.90
4757;DHT22;2392;52.578;13.426;2023-03-04T12:33:56;8.00;99.90
4757;DHT22;2392;52.578;13.426;2023-03-04T12:36:30;7.90;99.90
4757;DHT22;2392;52.578;13.426;2023-03-04T12:38:59;7.90;99.90
4757;DHT22;2392;52.578;13.426;2023-03-04T12:41:33;7.90;99.90
4757;DHT22;2392;52.578;13.426;2023-03-04T12:44:13;7.80;99.90
4757;DHT22;2392;52.578;13.426;2023-03-04T12:47:08;7.70;99.90
4757;DHT22;2392;52.578;13.426;2023-03-04T12:49:50;7.60;99.90
4757;DHT22;2392;52.578;13.426;2023-03-04T12:52:32;7.60;99.90
4757;DHT22;2392;52.578;13.426;2023-03-04T12:55:09;7.50;99.90
4757;DHT22;2392;52.578;13.426;2023-03-04T12:57:36;7.60;99.90
4757;DHT22;2392;52.578;13.426;2023-03-04T13:00:16;7.60;99.90
4757;DHT22;2392;52.578;13.426;2023-03-04T13:02:58;7.60;99.90
4757;DHT22;2392;52.578;13.426;2023-03-04T13:05:35;7.60;99.90
4757;DHT22;2392;52.578;13.426;2023-03-04T13:08:13;7.60;99.90
4757;DHT22;2392;52.578;13.426;2023-03-04T13:10:44;7.50;99.90
4757;DHT22;2392;52.578;13.426;2023-03-04T13:13:33;7.50;99.90
4757;DHT22;2392;52.578;13.426;2023-03-04T13:16:02;7.40;99.90
4757;DHT22;2392;52.578;13.426;2023-03-04T13:18:33;7.40;99.90
4757;DHT22;2392;52.578;13.426;2023-03-04T13:21:21;7.40;99.90
4757;DHT22;2392;52.578;13.426;2023-03-04T13:23:49;7.40;99.90
4757;DHT22;2392;52.578;13.426;2023-03-04T13:26:27;7.50;99.90
4757;DHT22;2392;52.578;13.426;2023-03-04T13:29:32;7.50;99.90
4757;DHT22;2392;52.578;13.426;2023-03-04T13:32:01;7.50;99.90
4757;DHT22;2392;52.578;13.426;2023-03-04T13:34:47;7.50;99.90
4757;DHT22;2392;52.578;13.426;2023-03-04T13:37:32;7.50;99.90
4757;DHT22;2392;52.578;13.426;2023-03-04T13:40:23;7.50;99.90
4757;DHT22;2392;52.578;13.426;2023-03-04T13:42:52;7.50;99.90
4757;DHT22;2392;52.578;13.426;2023-03-04T13:45:31;7.40;99.90
4757;DHT22;2392;52.578;13.426;2023-03-04T13:47:59;7.30;99.90
4757;DHT22;2392;52.578;13.426;2023-03-04T13:50:38;7.20;99.90
4757;DHT22;2392;52.578;13.426;2023-03-04T13:56:29;7.00;99.90
4757;DHT22;2392;52.578;13.426;2023-03-04T13:59:14;7.00;99.90
4757;DHT22;2392;52.578;13.426;2023-03-04T14:02:07;6.90;99.90
4757;DHT22;2392;52.578;13.426;2023-03-04T14:04:37;7.00;99.90
4757;DHT22;2392;52.578;13.426;2023-03-04T14:07:20;7.00;99.90
4757;DHT22;2392;52.578;13.426;2023-03-04T14:09:54;7.00;99.90
4757;DHT22;2392;52.578;13.426;2023-03-04T14:12:21;7.00;99.90
4757;DHT22;2392;52.578;13.426;2023-03-04T14:14:51;7.00;99.90
4757;DHT22;2392;52.578;13.426;2023-03-04T14:17:20;7.10;99.90
4757;DHT22;2392;52.578;13.426;2023-03-04T14:19:50;7.10;99.90
4757;DHT22;2392;52.578;13.426;2023-03-04T14:22:23;7.00;99.90
4757;DHT22;2392;52.578;13.426;2023-03-04T14:24:55;7.00;99.90
4757;DHT22;2392;52.578;13.426;2023-03-04T14:27:22;6.90;99.90
4757;DHT22;2392;52.578;13.426;2023-03-04T14:29:54;6.80;99.90
4757;DHT22;2392;52.578;13.426;2023-03-04T14:32:21;6.80;99.90
4757;DHT22;2392;52.578;13.426;2023-03-04T14:34:49;6.70;99.90
4757;DHT22;2392;52.578;13.426;2023-03-04T14:37:23;6.70;99.90
4757;DHT22;2392;52.578;13.426;2023-03-04T14:39:55;6.60;99.90
4757;DHT22;2392;52.578;13.426;2023-03-04T14:42:24;6.60;99.90
4757;DHT22;2392;52.578;13.426;2023-03-04T14:44:55;6.60;99.90
4757;DHT22;2392;52.578;13.426;2023-03-04T14:47:29;6.60;99.90
4757;DHT22;2392;52.578;13.426;2023-03-04T14:49:57;6.60;99.90
4757;DHT22;2392;52.578;13.426;2023-03-04T14:52:33;6.60;99.90
4757;DHT22;2392;52.578;13.426;2023-03-04T14:57:51;6.50;99.90
4757;DHT22;2392;52.578;13.426;2023-03-04T15:00:29;6.50;99.90
4757;DHT22;2392;52.578;13.426;2023-03-04T15:02:59;6.40;99.90
4757;DHT22;2392;52.578;13.426;2023-03-04T15:05:28;6.40;99.90
4757;DHT22;2392;52.578;13.426;2023-03-04T15:07:59;6.50;99.90
4757;DHT22;2392;52.578;13.426;2023-03-04T15:10:29;6.50;99.90
4757;DHT22;2392;52.578;13.426;2023-03-04T15:12:58;6.50;99.90
4757;DHT22;2392;52.578;13.426;2023-03-04T15:15:38;6.60;99.90
4757;DHT22;2392;52.578;13.426;2023-03-04T15:18:20;6.60;99.90
4757;DHT22;2392;52.578;13.426;2023-03-04T15:20:58;6.60;99.90
4757;DHT22;2392;52.578;13.426;2023-03-04T15:23:28;6.60;99.90
4757;DHT22;2392;52.578;13.426;2023-03-04T15:25:57;6.60;99.90
4757;DHT22;2392;52.578;13.426;2023-03-04T15:28:27;6.70;99.90
4757;DHT22;2392;52.578;13.426;2023-03-04T15:30:56;6.70;99.90
4757;DHT22;2392;52.578;13.426;2023-03-04T15:33:23;6.70;99.90
4757;DHT22;2392;52.578;13.426;2023-03-04T15:35:53;6.70;99.90
4757;DHT22;2392;52.578;13.426;2023-03-04T15:38:21;6.70;99.90
4757;DHT22;2392;52.578;13.426;2023-03-04T15:40:50;6.70;99.90
4757;DHT22;2392;52.578;13.426;2023-03-04T15:43:19;6.70;99.90
4757;DHT22;2392;52.578;13.426;2023-03-04T15:45:48;6.70;99.90
4757;DHT22;2392;52.578;13.426;2023-03-04T15:48:16;6.70;99.90
4757;DHT22;2392;52.578;13.426;2023-03-04T15:50:46;6.70;99.90
4757;DHT22;2392;52.578;13.426;2023-03-04T15:53:16;6.70;99.90
4757;DHT22;2392;52.578;13.426;2023-03-04T15:55:45;6.60;99.90
4757;DHT22;2392;52.578;13.426;2023-03-04T15:58:14;6.60;99.90
4757;DHT22;2392;52.578;13.426;2023-03-04T16:00:41;6.70;99.90
4757;DHT22;2392;52.578;13.426;2023-03-04T16:03:15;6.60;99.90
4757;DHT22;2392;52.578;13.426;2023-03-04T16:05:44;6.50;99.90
4757;DHT22;2392;52.578;13.426;2023-03-04T16:08:14;6.50;99.90
4757;DHT22;2392;52.578;13.426;2023-03-04T16:10:42;6.40;99.90
4757;DHT22;2392;52.578;13.426;2023-03-04T16:13:14;6.40;99.90
4757;DHT22;2392;52.578;13.426;2023-03-04T16:15:42;6.30;99.90
4757;DHT22;2392;52.578;13.426;2023-03-04T16:18:13;6.30;99.90
4757;DHT22;2392;52.578;13.426;2023-03-04T16:20:44;6.30;99.90
4757;DHT22;2392;52.578;13.426;2023-03-04T16:23:13;6.30;99.90
4757;DHT22;2392;52.578;13.426;2023-03-04T16:25:42;6.30;99.90
4757;DHT22;2392;52.578;13.426;2023-03-04T16:28:10;6.20;99.90
4757;DHT22;2392;52.578;13.426;2023-03-04T16:30:39;6.20;99.90
4757;DHT22;2392;52.578;13.426;2023-03-04T16:33:06;6.10;99.90
4757;DHT22;2392;52.578;13.426;2023-03-04T16:35:35;6.10;99.90